sensor_id;sensor_type;location;lat;lon;timestamp;temperature;humidity
12111;DHT22;6119;52.372;8.990;2023-07-08T00:00:11;21.80;97.30
12111;DHT22;6119;52.372;8.990;2023-07-08T00:02:58;21.70;97.50
12111;DHT22;6119;52.372;8.990;2023-07-08T00:05:46;21.60;97.90
12111;DHT22;6119;52.372;8.990;2023-07-08T00:08:33;21.70;98.00
12111;DHT22;6119;52.372;8.990;2023-07-08T00:11:20;21.70;98.00
12111;DHT22;6119;52.372;8.990;2023-07-08T00:14:08;21.60;98.10
12111;DHT22;6119;52.372;8.990;2023-07-08T00:16:55;21.60;98.20
12111;DHT22;6119;52.372;8.990;2023-07-08T00:19:42;21.60;98.10
12111;DHT22;6119;52.372;8.990;2023-07-08T00:22:28;21.60;98.20
12111;DHT22;6119;52.372;8.990;2023-07-08T00:25:15;21.50;98.00
12111;DHT22;6119;52.372;8.990;2023-07-08T00:28:02;21.50;98.30
12111;DHT22;6119;52.372;8.990;2023-07-08T00:30:50;21.50;98.30
12111;DHT22;6119;52.372;8.990;2023-07-08T00:33:38;21.40;98.30
12111;DHT22;6119;52.372;8.990;2023-07-08T00:36:26;21.40;98.20
12111;DHT22;6119;52.372;8.990;2023-07-08T00:39:14;21.30;98.00
12111;DHT22;6119;52.372;8.990;2023-07-08T00:42:01;21.30;97.90
12111;DHT22;6119;52.372;8.990;2023-07-08T00:44:51;21.30;98.00
12111;DHT22;6119;52.372;8.990;2023-07-08T00:47:39;21.30;97.60
12111;DHT22;6119;52.372;8.990;2023-07-08T00:50:26;21.20;97.40
12111;DHT22;6119;52.372;8.990;2023-07-08T00:53:23;21.10;97.20
12111;DHT22;6119;52.372;8.990;2023-07-08T00:56:16;21.10;97.60
12111;DHT22;6119;52.372;8.990;2023-07-08T00:59:07;21.10;97.40
12111;DHT22;6119;52.372;8.990;2023-07-08T01:01:55;21.00;97.30
12111;DHT22;6119;52.372;8.990;2023-07-08T01:04:50;21.10;97.60
12111;DHT22;6119;52.372;8.990;2023-07-08T01:07:39;21.00;97.60
12111;DHT22;6119;52.372;8.990;2023-07-08T01:10:32;21.00;97.80
12111;DHT22;6119;52.372;8.990;2023-07-08T01:13:21;21.00;97.40
12111;DHT22;6119;52.372;8.990;2023-07-08T01:16:09;21.00;97.80
12111;DHT22;6119;52.372;8.990;2023-07-08T01:18:56;20.90;97.80
12111;DHT22;6119;52.372;8.990;2023-07-08T01:21:46;20.70;97.90
12111;DHT22;6119;52.372;8.990;2023-07-08T01:24:35;20.80;97.90
12111;DHT22;6119;52.372;8.990;2023-07-08T01:27:24;20.70;98.00
12111;DHT22;6119;52.372;8.990;2023-07-08T01:30:12;20.60;97.90
12111;DHT22;6119;52.372;8.990;2023-07-08T01:33:04;20.60;98.00
12111;DHT22;6119;52.372;8.990;2023-07-08T01:35:52;20.60;98.10
12111;DHT22;6119;52.372;8.990;2023-07-08T01:38:43;20.50;98.40
12111;DHT22;6119;52.372;8.990;2023-07-08T01:41:30;20.50;98.30
12111;DHT22;6119;52.372;8.990;2023-07-08T01:44:28;20.40;98.30
12111;DHT22;6119;52.372;8.990;2023-07-08T01:47:17;20.40;98.30
12111;DHT22;6119;52.372;8.990;2023-07-08T01:50:07;20.30;98.50
12111;DHT22;6119;52.372;8.990;2023-07-08T01:52:56;20.30;98.60
12111;DHT22;6119;52.372;8.990;2023-07-08T01:55:45;20.20;98.80
12111;DHT22;6119;52.372;8.990;2023-07-08T01:58:32;20.20;98.90
12111;DHT22;6119;52.372;8.990;2023-07-08T02:01:19;20.20;98.40
12111;DHT22;6119;52.372;8.990;2023-07-08T02:04:06;20.20;98.60
12111;DHT22;6119;52.372;8.990;2023-07-08T02:06:54;20.10;98.60
12111;DHT22;6119;52.372;8.990;2023-07-08T02:09:41;20.10;98.90
12111;DHT22;6119;52.372;8.990;2023-07-08T02:12:29;20.00;99.10
12111;DHT22;6119;52.372;8.990;2023-07-08T02:15:15;20.00;99.40
12111;DHT22;6119;52.372;8.990;2023-07-08T02:18:02;19.90;99.10
12111;DHT22;6119;52.372;8.990;2023-07-08T02:20:49;19.90;99.60
12111;DHT22;6119;52.372;8.990;2023-07-08T02:23:35;19.90;99.40
12111;DHT22;6119;52.372;8.990;2023-07-08T02:26:21;19.90;99.50
12111;DHT22;6119;52.372;8.990;2023-07-08T02:29:09;19.80;99.90
12111;DHT22;6119;52.372;8.990;2023-07-08T02:31:56;19.80;99.90
12111;DHT22;6119;52.372;8.990;2023-07-08T02:34:43;19.60;99.90
12111;DHT22;6119;52.372;8.990;2023-07-08T02:37:30;19.50;99.90
12111;DHT22;6119;52.372;8.990;2023-07-08T02:40:17;19.50;99.90
12111;DHT22;6119;52.372;8.990;2023-07-08T02:43:03;19.40;99.90
12111;DHT22;6119;52.372;8.990;2023-07-08T02:45:52;19.40;99.90
12111;DHT22;6119;52.372;8.990;2023-07-08T02:48:39;19.40;99.90
12111;DHT22;6119;52.372;8.990;2023-07-08T02:51:25;19.30;99.90
12111;DHT22;6119;52.372;8.990;2023-07-08T02:54:12;19.20;99.90
12111;DHT22;6119;52.372;8.990;2023-07-08T02:56:58;19.10;99.90
12111;DHT22;6119;52.372;8.990;2023-07-08T02:59:45;19.10;99.90
12111;DHT22;6119;52.372;8.990;2023-07-08T03:02:33;19.10;99.90
12111;DHT22;6119;52.372;8.990;2023-07-08T03:05:20;19.10;99.90
12111;DHT22;6119;52.372;8.990;2023-07-08T03:08:06;19.10;99.90
12111;DHT22;6119;52.372;8.990;2023-07-08T03:11:00;19.00;99.90
12111;DHT22;6119;52.372;8.990;2023-07-08T03:13:47;19.00;99.90
12111;DHT22;6119;52.372;8.990;2023-07-08T03:16:34;18.90;99.90
12111;DHT22;6119;52.372;8.990;2023-07-08T03:19:23;18.90;99.90
12111;DHT22;6119;52.372;8.990;2023-07-08T03:22:09;18.90;99.90
12111;DHT22;6119;52.372;8.990;2023-07-08T03:24:56;18.80;99.90
12111;DHT22;6119;52.372;8.990;2023-07-08T03:27:42;18.80;99.90
12111;DHT22;6119;52.372;8.990;2023-07-08T03:30:29;18.80;99.90
12111;DHT22;6119;52.372;8.990;2023-07-08T03:33:16;18.80;99.90
12111;DHT22;6119;52.372;8.990;2023-07-08T03:36:05;18.80;99.90
12111;DHT22;6119;52.372;8.990;2023-07-08T03:38:58;18.90;99.90
12111;DHT22;6119;52.372;8.990;2023-07-08T03:41:45;18.90;99.90
12111;DHT22;6119;52.372;8.990;2023-07-08T03:44:32;18.80;99.90
12111;DHT22;6119;52.372;8.990;2023-07-08T03:47:19;18.90;99.90
12111;DHT22;6119;52.372;8.990;2023-07-08T03:50:08;18.90;99.90
12111;DHT22;6119;52.372;8.990;2023-07-08T03:52:59;18.90;99.90
12111;DHT22;6119;52.372;8.990;2023-07-08T03:55:46;19.00;99.90
12111;DHT22;6119;52.372;8.990;2023-07-08T03:58:32;18.80;99.90
12111;DHT22;6119;52.372;8.990;2023-07-08T04:01:20;18.90;99.90
12111;DHT22;6119;52.372;8.990;2023-07-08T04:04:10;18.80;99.90
12111;DHT22;6119;52.372;8.990;2023-07-08T04:06:58;18.90;99.90
12111;DHT22;6119;52.372;8.990;2023-07-08T04:09:46;18.90;99.90
12111;DHT22;6119;52.372;8.990;2023-07-08T04:12:35;18.90;99.90
12111;DHT22;6119;52.372;8.990;2023-07-08T04:15:22;19.00;99.90
12111;DHT22;6119;52.372;8.990;2023-07-08T04:18:13;19.00;99.90
12111;DHT22;6119;52.372;8.990;2023-07-08T04:21:00;19.00;99.90
12111;DHT22;6119;52.372;8.990;2023-07-08T04:23:51;19.00;99.90
12111;DHT22;6119;52.372;8.990;2023-07-08T04:26:40;19.00;99.90
12111;DHT22;6119;52.372;8.990;2023-07-08T04:29:27;19.00;99.90
12111;DHT22;6119;52.372;8.990;2023-07-08T04:32:13;19.10;99.90
12111;DHT22;6119;52.372;8.990;2023-07-08T04:34:59;19.00;99.90
12111;DHT22;6119;52.372;8.990;2023-07-08T04:37:46;19.10;99.90
12111;DHT22;6119;52.372;8.990;2023-07-08T04:40:33;19.10;99.90
12111;DHT22;6119;52.372;8.990;2023-07-08T04:43:23;19.10;99.90
12111;DHT22;6119;52.372;8.990;2023-07-08T04:46:23;19.20;99.90
12111;DHT22;6119;52.372;8.990;2023-07-08T04:49:12;19.20;99.90
12111;DHT22;6119;52.372;8.990;2023-07-08T04:51:59;19.30;99.90
12111;DHT22;6119;52.372;8.990;2023-07-08T04:54:47;19.40;99.90
12111;DHT22;6119;52.372;8.990;2023-07-08T04:57:34;19.40;99.90
12111;DHT22;6119;52.372;8.990;2023-07-08T05:00:22;19.40;99.90
12111;DHT22;6119;52.372;8.990;2023-07-08T05:03:09;19.50;99.90
12111;DHT22;6119;52.372;8.990;2023-07-08T05:05:55;19.50;99.90
12111;DHT22;6119;52.372;8.990;2023-07-08T05:08:42;19.60;99.90
12111;DHT22;6119;52.372;8.990;2023-07-08T05:11:29;19.60;99.90
12111;DHT22;6119;52.372;8.990;2023-07-08T05:14:16;19.60;99.90
12111;DHT22;6119;52.372;8.990;2023-07-08T05:17:04;19.70;99.90
12111;DHT22;6119;52.372;8.990;2023-07-08T05:19:51;19.70;99.90
12111;DHT22;6119;52.372;8.990;2023-07-08T05:22:39;19.80;99.90
12111;DHT22;6119;52.372;8.990;2023-07-08T05:25:26;19.80;99.90
12111;DHT22;6119;52.372;8.990;2023-07-08T05:28:12;20.00;99.90
12111;DHT22;6119;52.372;8.990;2023-07-08T05:30:59;20.00;99.90
12111;DHT22;6119;52.372;8.990;2023-07-08T05:33:47;20.00;99.90
12111;DHT22;6119;52.372;8.990;2023-07-08T05:36:34;20.00;99.90
12111;DHT22;6119;52.372;8.990;2023-07-08T05:39:20;20.20;99.90
12111;DHT22;6119;52.372;8.990;2023-07-08T05:42:07;20.10;99.90
12111;DHT22;6119;52.372;8.990;2023-07-08T05:44:54;20.20;99.90
12111;DHT22;6119;52.372;8.990;2023-07-08T05:47:41;20.40;99.90
12111;DHT22;6119;52.372;8.990;2023-07-08T05:50:29;20.40;99.90
12111;DHT22;6119;52.372;8.990;2023-07-08T05:53:18;20.50;99.90
12111;DHT22;6119;52.372;8.990;2023-07-08T05:56:05;20.50;99.90
12111;DHT22;6119;52.372;8.990;2023-07-08T05:58:52;20.50;99.90
12111;DHT22;6119;52.372;8.990;2023-07-08T06:01:38;20.60;99.90
12111;DHT22;6119;52.372;8.990;2023-07-08T06:04:25;20.70;99.90
12111;DHT22;6119;52.372;8.990;2023-07-08T06:07:13;20.70;99.90
12111;DHT22;6119;52.372;8.990;2023-07-08T06:10:01;20.80;99.90
12111;DHT22;6119;52.372;8.990;2023-07-08T06:12:47;20.90;99.90
12111;DHT22;6119;52.372;8.990;2023-07-08T06:15:34;21.00;99.90
12111;DHT22;6119;52.372;8.990;2023-07-08T06:18:20;21.00;99.90
12111;DHT22;6119;52.372;8.990;2023-07-08T06:21:07;21.00;99.90
12111;DHT22;6119;52.372;8.990;2023-07-08T06:23:55;21.10;99.90
12111;DHT22;6119;52.372;8.990;2023-07-08T06:26:41;21.20;99.90
12111;DHT22;6119;52.372;8.990;2023-07-08T06:29:28;21.30;99.90
12111;DHT22;6119;52.372;8.990;2023-07-08T06:32:15;21.40;99.90
12111;DHT22;6119;52.372;8.990;2023-07-08T06:35:02;21.40;99.90
12111;DHT22;6119;52.372;8.990;2023-07-08T06:37:49;21.50;99.90
12111;DHT22;6119;52.372;8.990;2023-07-08T06:40:36;21.60;99.90
12111;DHT22;6119;52.372;8.990;2023-07-08T06:43:23;21.70;99.90
12111;DHT22;6119;52.372;8.990;2023-07-08T06:46:10;21.70;99.90
12111;DHT22;6119;52.372;8.990;2023-07-08T06:48:57;21.80;99.90
12111;DHT22;6119;52.372;8.990;2023-07-08T06:51:43;21.80;99.90
12111;DHT22;6119;52.372;8.990;2023-07-08T06:54:30;21.90;99.90
12111;DHT22;6119;52.372;8.990;2023-07-08T06:57:19;21.90;99.90
12111;DHT22;6119;52.372;8.990;2023-07-08T07:00:07;22.00;99.90
12111;DHT22;6119;52.372;8.990;2023-07-08T07:02:55;22.10;99.90
12111;DHT22;6119;52.372;8.990;2023-07-08T07:05:43;22.20;99.90
12111;DHT22;6119;52.372;8.990;2023-07-08T07:08:30;22.30;99.90
12111;DHT22;6119;52.372;8.990;2023-07-08T07:11:16;22.40;99.90
12111;DHT22;6119;52.372;8.990;2023-07-08T07:14:06;22.50;99.90
12111;DHT22;6119;52.372;8.990;2023-07-08T07:17:13;22.50;99.90
12111;DHT22;6119;52.372;8.990;2023-07-08T07:20:00;22.60;99.90
12111;DHT22;6119;52.372;8.990;2023-07-08T07:22:46;22.70;99.90
12111;DHT22;6119;52.372;8.990;2023-07-08T07:25:34;22.70;99.90
12111;DHT22;6119;52.372;8.990;2023-07-08T07:28:21;22.80;99.90
12111;DHT22;6119;52.372;8.990;2023-07-08T07:31:09;22.90;99.90
12111;DHT22;6119;52.372;8.990;2023-07-08T07:33:56;23.00;99.90
12111;DHT22;6119;52.372;8.990;2023-07-08T07:36:43;23.10;99.90
12111;DHT22;6119;52.372;8.990;2023-07-08T07:39:29;23.20;99.90
12111;DHT22;6119;52.372;8.990;2023-07-08T07:42:17;23.40;99.90
12111;DHT22;6119;52.372;8.990;2023-07-08T07:45:05;23.50;99.90
12111;DHT22;6119;52.372;8.990;2023-07-08T07:47:54;23.50;99.90
12111;DHT22;6119;52.372;8.990;2023-07-08T07:50:44;23.60;99.90
12111;DHT22;6119;52.372;8.990;2023-07-08T07:53:31;23.70;99.90
12111;DHT22;6119;52.372;8.990;2023-07-08T07:56:17;23.70;99.90
12111;DHT22;6119;52.372;8.990;2023-07-08T07:59:04;23.80;99.90
12111;DHT22;6119;52.372;8.990;2023-07-08T08:01:50;23.90;99.90
12111;DHT22;6119;52.372;8.990;2023-07-08T08:04:39;24.00;99.90
12111;DHT22;6119;52.372;8.990;2023-07-08T08:07:25;24.10;99.90
12111;DHT22;6119;52.372;8.990;2023-07-08T08:10:11;24.30;99.90
12111;DHT22;6119;52.372;8.990;2023-07-08T08:12:58;24.40;99.90
12111;DHT22;6119;52.372;8.990;2023-07-08T08:15:44;24.50;99.90
12111;DHT22;6119;52.372;8.990;2023-07-08T08:18:31;24.50;99.90
12111;DHT22;6119;52.372;8.990;2023-07-08T08:21:19;24.60;99.90
12111;DHT22;6119;52.372;8.990;2023-07-08T08:24:07;24.70;99.90
12111;DHT22;6119;52.372;8.990;2023-07-08T08:26:53;24.70;99.90
12111;DHT22;6119;52.372;8.990;2023-07-08T08:29:40;24.80;99.90
12111;DHT22;6119;52.372;8.990;2023-07-08T08:32:30;24.90;99.90
12111;DHT22;6119;52.372;8.990;2023-07-08T08:35:17;24.10;99.90
12111;DHT22;6119;52.372;8.990;2023-07-08T08:38:04;25.10;99.90
12111;DHT22;6119;52.372;8.990;2023-07-08T08:40:51;25.30;99.90
12111;DHT22;6119;52.372;8.990;2023-07-08T08:43:39;25.40;99.90
12111;DHT22;6119;52.372;8.990;2023-07-08T08:46:32;25.40;99.90
12111;DHT22;6119;52.372;8.990;2023-07-08T08:49:25;25.50;99.90
12111;DHT22;6119;52.372;8.990;2023-07-08T08:52:13;25.70;99.90
12111;DHT22;6119;52.372;8.990;2023-07-08T08:55:01;25.70;99.90
12111;DHT22;6119;52.372;8.990;2023-07-08T08:57:54;25.80;99.90
12111;DHT22;6119;52.372;8.990;2023-07-08T09:00:51;25.90;99.90
12111;DHT22;6119;52.372;8.990;2023-07-08T09:03:46;26.10;99.90
12111;DHT22;6119;52.372;8.990;2023-07-08T09:06:35;26.30;99.90
12111;DHT22;6119;52.372;8.990;2023-07-08T09:09:29;26.40;99.90
12111;DHT22;6119;52.372;8.990;2023-07-08T09:12:21;26.60;99.90
12111;DHT22;6119;52.372;8.990;2023-07-08T09:15:12;26.80;99.90
12111;DHT22;6119;52.372;8.990;2023-07-08T09:18:13;26.90;99.90
12111;DHT22;6119;52.372;8.990;2023-07-08T09:21:18;26.90;99.90
12111;DHT22;6119;52.372;8.990;2023-07-08T09:24:11;27.10;99.90
12111;DHT22;6119;52.372;8.990;2023-07-08T09:27:01;27.10;99.90
12111;DHT22;6119;52.372;8.990;2023-07-08T09:29:49;27.50;99.90
12111;DHT22;6119;52.372;8.990;2023-07-08T09:32:37;27.50;99.00
12111;DHT22;6119;52.372;8.990;2023-07-08T09:35:26;27.70;99.90
12111;DHT22;6119;52.372;8.990;2023-07-08T09:38:15;27.80;99.60
12111;DHT22;6119;52.372;8.990;2023-07-08T09:41:02;28.00;99.70
12111;DHT22;6119;52.372;8.990;2023-07-08T09:43:49;28.10;99.20
12111;DHT22;6119;52.372;8.990;2023-07-08T09:46:37;28.20;99.20
12111;DHT22;6119;52.372;8.990;2023-07-08T09:49:26;28.30;99.20
12111;DHT22;6119;52.372;8.990;2023-07-08T09:52:14;28.50;99.90
12111;DHT22;6119;52.372;8.990;2023-07-08T09:55:01;28.50;99.40
12111;DHT22;6119;52.372;8.990;2023-07-08T09:57:49;28.70;99.00
12111;DHT22;6119;52.372;8.990;2023-07-08T10:00:40;28.90;99.30
12111;DHT22;6119;52.372;8.990;2023-07-08T10:03:30;29.00;97.40
12111;DHT22;6119;52.372;8.990;2023-07-08T10:06:22;29.10;97.80
12111;DHT22;6119;52.372;8.990;2023-07-08T10:09:12;29.30;97.90
12111;DHT22;6119;52.372;8.990;2023-07-08T10:12:05;29.50;98.40
12111;DHT22;6119;52.372;8.990;2023-07-08T10:14:59;29.50;97.50
12111;DHT22;6119;52.372;8.990;2023-07-08T10:17:48;29.60;97.30
12111;DHT22;6119;52.372;8.990;2023-07-08T10:20:48;29.70;97.10
12111;DHT22;6119;52.372;8.990;2023-07-08T10:23:43;29.80;98.30
12111;DHT22;6119;52.372;8.990;2023-07-08T10:26:35;30.00;97.10
12111;DHT22;6119;52.372;8.990;2023-07-08T10:29:28;30.10;96.50
12111;DHT22;6119;52.372;8.990;2023-07-08T10:32:29;30.20;97.20
12111;DHT22;6119;52.372;8.990;2023-07-08T10:35:20;30.40;96.30
12111;DHT22;6119;52.372;8.990;2023-07-08T10:38:23;30.30;96.90
12111;DHT22;6119;52.372;8.990;2023-07-08T10:41:18;30.30;95.50
12111;DHT22;6119;52.372;8.990;2023-07-08T10:44:12;30.50;96.70
12111;DHT22;6119;52.372;8.990;2023-07-08T10:47:06;30.60;96.10
12111;DHT22;6119;52.372;8.990;2023-07-08T10:50:14;30.80;95.30
12111;DHT22;6119;52.372;8.990;2023-07-08T10:53:17;31.00;95.10
12111;DHT22;6119;52.372;8.990;2023-07-08T10:56:14;31.10;95.70
12111;DHT22;6119;52.372;8.990;2023-07-08T10:59:28;31.20;95.40
12111;DHT22;6119;52.372;8.990;2023-07-08T11:02:32;31.30;94.70
12111;DHT22;6119;52.372;8.990;2023-07-08T11:05:28;31.40;94.00
12111;DHT22;6119;52.372;8.990;2023-07-08T11:08:21;31.50;93.60
12111;DHT22;6119;52.372;8.990;2023-07-08T11:11:18;31.50;91.30
12111;DHT22;6119;52.372;8.990;2023-07-08T11:14:13;31.60;90.10
12111;DHT22;6119;52.372;8.990;2023-07-08T11:17:07;31.60;86.90
12111;DHT22;6119;52.372;8.990;2023-07-08T11:20:00;31.80;87.40
12111;DHT22;6119;52.372;8.990;2023-07-08T11:22:51;31.70;76.40
12111;DHT22;6119;52.372;8.990;2023-07-08T11:25:41;31.90;83.40
12111;DHT22;6119;52.372;8.990;2023-07-08T11:28:29;32.00;78.00
12111;DHT22;6119;52.372;8.990;2023-07-08T11:31:16;32.10;77.90
12111;DHT22;6119;52.372;8.990;2023-07-08T11:34:03;32.20;76.80
12111;DHT22;6119;52.372;8.990;2023-07-08T11:36:51;32.20;71.40
12111;DHT22;6119;52.372;8.990;2023-07-08T11:39:41;32.40;72.40
12111;DHT22;6119;52.372;8.990;2023-07-08T11:42:35;32.50;71.80
12111;DHT22;6119;52.372;8.990;2023-07-08T11:45:27;32.70;75.20
12111;DHT22;6119;52.372;8.990;2023-07-08T11:48:22;32.80;70.30
12111;DHT22;6119;52.372;8.990;2023-07-08T11:51:16;32.60;63.20
12111;DHT22;6119;52.372;8.990;2023-07-08T11:54:12;32.80;71.30
12111;DHT22;6119;52.372;8.990;2023-07-08T11:57:03;33.00;70.60
12111;DHT22;6119;52.372;8.990;2023-07-08T12:00:17;33.00;66.40
12111;DHT22;6119;52.372;8.990;2023-07-08T12:03:19;33.00;70.10
12111;DHT22;6119;52.372;8.990;2023-07-08T12:06:41;33.10;70.80
12111;DHT22;6119;52.372;8.990;2023-07-08T12:09:36;32.90;65.80
12111;DHT22;6119;52.372;8.990;2023-07-08T12:12:29;33.10;71.40
12111;DHT22;6119;52.372;8.990;2023-07-08T12:15:24;33.20;69.60
12111;DHT22;6119;52.372;8.990;2023-07-08T12:18:13;33.30;70.30
12111;DHT22;6119;52.372;8.990;2023-07-08T12:21:01;33.30;67.10
12111;DHT22;6119;52.372;8.990;2023-07-08T12:23:48;33.40;68.60
12111;DHT22;6119;52.372;8.990;2023-07-08T12:26:34;33.50;68.10
12111;DHT22;6119;52.372;8.990;2023-07-08T12:29:22;33.70;69.60
12111;DHT22;6119;52.372;8.990;2023-07-08T12:32:13;33.80;67.40
12111;DHT22;6119;52.372;8.990;2023-07-08T12:35:00;33.70;66.60
12111;DHT22;6119;52.372;8.990;2023-07-08T12:37:51;33.90;68.70
12111;DHT22;6119;52.372;8.990;2023-07-08T12:40:38;34.00;69.10
12111;DHT22;6119;52.372;8.990;2023-07-08T12:43:24;34.10;68.80
12111;DHT22;6119;52.372;8.990;2023-07-08T12:46:12;34.00;66.60
12111;DHT22;6119;52.372;8.990;2023-07-08T12:49:01;33.90;63.50
12111;DHT22;6119;52.372;8.990;2023-07-08T12:51:48;34.00;65.10
12111;DHT22;6119;52.372;8.990;2023-07-08T12:54:36;34.10;66.30
12111;DHT22;6119;52.372;8.990;2023-07-08T12:57:23;34.20;64.90
12111;DHT22;6119;52.372;8.990;2023-07-08T13:00:13;34.20;62.70
12111;DHT22;6119;52.372;8.990;2023-07-08T13:03:04;34.30;61.00
12111;DHT22;6119;52.372;8.990;2023-07-08T13:05:55;34.40;67.00
12111;DHT22;6119;52.372;8.990;2023-07-08T13:08:42;34.30;61.80
12111;DHT22;6119;52.372;8.990;2023-07-08T13:11:29;34.40;64.80
12111;DHT22;6119;52.372;8.990;2023-07-08T13:14:17;34.40;63.60
12111;DHT22;6119;52.372;8.990;2023-07-08T13:17:04;34.50;63.50
12111;DHT22;6119;52.372;8.990;2023-07-08T13:19:52;34.70;66.10
12111;DHT22;6119;52.372;8.990;2023-07-08T13:22:40;34.80;63.00
12111;DHT22;6119;52.372;8.990;2023-07-08T13:25:30;34.90;62.10
12111;DHT22;6119;52.372;8.990;2023-07-08T13:28:18;34.80;64.20
12111;DHT22;6119;52.372;8.990;2023-07-08T13:31:15;35.10;62.30
12111;DHT22;6119;52.372;8.990;2023-07-08T13:34:19;35.00;63.20
12111;DHT22;6119;52.372;8.990;2023-07-08T13:37:10;35.10;64.20
12111;DHT22;6119;52.372;8.990;2023-07-08T13:39:59;35.20;60.60
12111;DHT22;6119;52.372;8.990;2023-07-08T13:42:48;35.10;62.50
12111;DHT22;6119;52.372;8.990;2023-07-08T13:45:35;35.30;65.50
12111;DHT22;6119;52.372;8.990;2023-07-08T13:48:25;35.40;59.70
12111;DHT22;6119;52.372;8.990;2023-07-08T13:51:16;35.20;57.70
12111;DHT22;6119;52.372;8.990;2023-07-08T13:54:13;35.30;58.30
12111;DHT22;6119;52.372;8.990;2023-07-08T13:57:02;35.20;60.50
12111;DHT22;6119;52.372;8.990;2023-07-08T13:59:48;35.30;61.10
12111;DHT22;6119;52.372;8.990;2023-07-08T14:02:36;35.40;60.70
12111;DHT22;6119;52.372;8.990;2023-07-08T14:05:25;35.50;62.10
12111;DHT22;6119;52.372;8.990;2023-07-08T14:08:13;35.40;58.90
12111;DHT22;6119;52.372;8.990;2023-07-08T14:11:00;35.50;60.00
12111;DHT22;6119;52.372;8.990;2023-07-08T14:13:48;35.30;59.20
12111;DHT22;6119;52.372;8.990;2023-07-08T14:16:38;35.30;58.80
12111;DHT22;6119;52.372;8.990;2023-07-08T14:19:28;35.40;59.10
12111;DHT22;6119;52.372;8.990;2023-07-08T14:22:26;35.30;57.70
12111;DHT22;6119;52.372;8.990;2023-07-08T14:25:15;35.50;59.30
12111;DHT22;6119;52.372;8.990;2023-07-08T14:28:06;35.60;58.40
12111;DHT22;6119;52.372;8.990;2023-07-08T14:30:53;35.80;58.50
12111;DHT22;6119;52.372;8.990;2023-07-08T14:33:40;35.80;58.50
12111;DHT22;6119;52.372;8.990;2023-07-08T14:36:27;35.90;56.40
12111;DHT22;6119;52.372;8.990;2023-07-08T14:39:14;35.60;56.30
12111;DHT22;6119;52.372;8.990;2023-07-08T14:42:02;35.60;57.10
12111;DHT22;6119;52.372;8.990;2023-07-08T14:44:49;35.50;56.00
12111;DHT22;6119;52.372;8.990;2023-07-08T14:47:39;35.70;58.20
12111;DHT22;6119;52.372;8.990;2023-07-08T14:50:26;35.70;55.00
12111;DHT22;6119;52.372;8.990;2023-07-08T14:53:15;35.60;56.60
12111;DHT22;6119;52.372;8.990;2023-07-08T14:56:08;35.80;57.30
12111;DHT22;6119;52.372;8.990;2023-07-08T14:58:57;35.70;56.50
12111;DHT22;6119;52.372;8.990;2023-07-08T15:01:46;35.70;56.60
12111;DHT22;6119;52.372;8.990;2023-07-08T15:04:34;35.80;56.40
12111;DHT22;6119;52.372;8.990;2023-07-08T15:07:21;35.80;57.50
12111;DHT22;6119;52.372;8.990;2023-07-08T15:10:08;35.90;56.80
12111;DHT22;6119;52.372;8.990;2023-07-08T15:12:56;36.00;55.60
12111;DHT22;6119;52.372;8.990;2023-07-08T15:15:45;36.00;55.90
12111;DHT22;6119;52.372;8.990;2023-07-08T15:18:32;36.00;56.50
12111;DHT22;6119;52.372;8.990;2023-07-08T15:21:20;36.20;56.00
12111;DHT22;6119;52.372;8.990;2023-07-08T15:24:11;36.10;56.00
12111;DHT22;6119;52.372;8.990;2023-07-08T15:26:58;36.20;55.60
12111;DHT22;6119;52.372;8.990;2023-07-08T15:29:44;36.20;56.20
12111;DHT22;6119;52.372;8.990;2023-07-08T15:32:32;36.20;56.00
12111;DHT22;6119;52.372;8.990;2023-07-08T15:35:24;36.30;57.20
12111;DHT22;6119;52.372;8.990;2023-07-08T15:38:12;36.10;57.00
12111;DHT22;6119;52.372;8.990;2023-07-08T15:40:59;36.20;56.50
12111;DHT22;6119;52.372;8.990;2023-07-08T15:43:46;36.20;56.10
12111;DHT22;6119;52.372;8.990;2023-07-08T15:46:36;36.30;56.10
12111;DHT22;6119;52.372;8.990;2023-07-08T15:49:25;36.20;57.50
12111;DHT22;6119;52.372;8.990;2023-07-08T15:52:15;36.00;56.80
12111;DHT22;6119;52.372;8.990;2023-07-08T15:55:03;36.30;56.50
12111;DHT22;6119;52.372;8.990;2023-07-08T15:57:53;36.20;56.90
12111;DHT22;6119;52.372;8.990;2023-07-08T16:00:41;36.20;54.90
12111;DHT22;6119;52.372;8.990;2023-07-08T16:03:29;36.30;55.00
12111;DHT22;6119;52.372;8.990;2023-07-08T16:06:17;36.20;55.10
12111;DHT22;6119;52.372;8.990;2023-07-08T16:09:04;36.30;56.10
12111;DHT22;6119;52.372;8.990;2023-07-08T16:11:52;36.30;55.40
12111;DHT22;6119;52.372;8.990;2023-07-08T16:14:38;36.20;56.10
12111;DHT22;6119;52.372;8.990;2023-07-08T16:17:25;36.40;55.50
12111;DHT22;6119;52.372;8.990;2023-07-08T16:20:16;36.40;56.10
12111;DHT22;6119;52.372;8.990;2023-07-08T16:23:03;36.30;53.40
12111;DHT22;6119;52.372;8.990;2023-07-08T16:25:51;36.30;55.50
12111;DHT22;6119;52.372;8.990;2023-07-08T16:28:41;36.10;55.80
12111;DHT22;6119;52.372;8.990;2023-07-08T16:31:28;36.10;55.30
12111;DHT22;6119;52.372;8.990;2023-07-08T16:34:16;36.10;54.70
12111;DHT22;6119;52.372;8.990;2023-07-08T16:37:03;36.00;55.90
12111;DHT22;6119;52.372;8.990;2023-07-08T16:39:50;35.60;54.50
12111;DHT22;6119;52.372;8.990;2023-07-08T16:42:38;36.00;55.90
12111;DHT22;6119;52.372;8.990;2023-07-08T16:45:26;36.00;55.00
12111;DHT22;6119;52.372;8.990;2023-07-08T16:48:12;36.10;54.40
12111;DHT22;6119;52.372;8.990;2023-07-08T16:50:59;36.00;54.90
12111;DHT22;6119;52.372;8.990;2023-07-08T16:53:46;36.10;55.40
12111;DHT22;6119;52.372;8.990;2023-07-08T16:56:33;35.90;55.60
12111;DHT22;6119;52.372;8.990;2023-07-08T16:59:19;36.00;56.60
12111;DHT22;6119;52.372;8.990;2023-07-08T17:02:11;36.00;55.40
12111;DHT22;6119;52.372;8.990;2023-07-08T17:04:58;36.00;55.90
12111;DHT22;6119;52.372;8.990;2023-07-08T17:07:45;36.00;55.90
12111;DHT22;6119;52.372;8.990;2023-07-08T17:10:31;36.00;55.90
12111;DHT22;6119;52.372;8.990;2023-07-08T17:13:18;35.60;56.90
12111;DHT22;6119;52.372;8.990;2023-07-08T17:16:07;35.70;58.40
12111;DHT22;6119;52.372;8.990;2023-07-08T17:18:57;35.90;59.10
12111;DHT22;6119;52.372;8.990;2023-07-08T17:21:44;35.90;58.50
12111;DHT22;6119;52.372;8.990;2023-07-08T17:24:32;35.90;59.20
12111;DHT22;6119;52.372;8.990;2023-07-08T17:27:19;35.70;59.90
12111;DHT22;6119;52.372;8.990;2023-07-08T17:30:06;35.80;61.00
12111;DHT22;6119;52.372;8.990;2023-07-08T17:32:55;35.50;60.50
12111;DHT22;6119;52.372;8.990;2023-07-08T17:35:44;35.40;60.80
12111;DHT22;6119;52.372;8.990;2023-07-08T17:38:45;35.40;59.90
12111;DHT22;6119;52.372;8.990;2023-07-08T17:41:31;35.30;59.80
12111;DHT22;6119;52.372;8.990;2023-07-08T17:44:18;35.00;59.90
12111;DHT22;6119;52.372;8.990;2023-07-08T17:47:08;35.00;60.70
12111;DHT22;6119;52.372;8.990;2023-07-08T17:49:55;35.30;62.70
12111;DHT22;6119;52.372;8.990;2023-07-08T17:52:43;35.20;63.80
12111;DHT22;6119;52.372;8.990;2023-07-08T17:55:30;35.00;61.90
12111;DHT22;6119;52.372;8.990;2023-07-08T17:58:16;34.90;63.70
12111;DHT22;6119;52.372;8.990;2023-07-08T18:01:07;34.90;65.10
12111;DHT22;6119;52.372;8.990;2023-07-08T18:03:54;34.70;62.60